首页
METAR-TAF:

METAR-TAF

机场 :

汉堡机场

汉堡, 德国

纬度: 53-38N, 经度: 010-00E, 海拔: 16米

当前天气观测

该预报发布于41分钟前的01:20 UTC
静风
温度 7°C
湿度 93%
气压 996 hPa
能见度10公里或以上
1500米以下无云,无积雨云

METAR: EDDH 260120Z 00000KT CAVOK 07/06 Q0996 NOSIG

时间: 04:01 (02:01 UTC)

预报

该预报发布于3小时和1分钟前的23:00 UTC
预报有效从26日的 00点(UTC)到 27日的 06点(UTC)
风速2节,风向多变
能见度10公里或以上
1500米以下无云,无积雨云
成为
从 26日的 09点(UTC)到 26日的 11点(UTC)
风速6节,风向西
成为
从 26日的 15点(UTC)到 26日的 17点(UTC)
多云层高于1300英尺
短暂存在
从 26日的 15点(UTC)到 26日的 20点(UTC)
能見度: 4000
成为
从 26日的 17点(UTC)到 26日的 20点(UTC)
多云层高于700英尺
成为
从 26日的 20点(UTC)到 26日的 23点(UTC)
风速3节,风向多变
能見度: 2500
多云层高于400英尺
轻雾
成为
从 27日的 01点(UTC)到 27日的 04点(UTC)
风速5节,风向南转南东
短暂存在
从 27日的 03点(UTC)到 27日的 06点(UTC)
能見度: 6000
多云层高于1000英尺

TAF: EDDH 252300Z 2600/2706 VRB02KT CAVOK BECMG 2609/2611 28006KT BECMG 2615/2617 BKN013 TEMPO 2615/2620 4000 RA BECMG 2617/2620 BKN007 BECMG 2620/2623 VRB03KT 2500 BR BKN004 BECMG 2701/2704 16005KT TEMPO 2703/2706 6000 BKN010

超过4000个机场的气象观测和天气预报(METAR&TAF报告)。

可查询的气象台以黄色和红色小点在地图上表示。

将鼠标移到小点上方,可查看气象台名称。

然后点击查看天气观测和预报。

如需切换地图:点击带黑十字的绿色按钮放大地图;点击带横线的绿色按钮缩小地图;或者点击绿色箭头查看邻近地区的地图。


METAR-TAF: